Time;durP1;ratioP1;P1;durP2;ratioP2;P2;SDS_P1;SDS_P2;PMS_P1;PMS_P2;Temp;Humidity;BMP_temperature;BMP_pressure;BME280_temperature;BME280_humidity;BME280_pressure;Samples;Min_cycle;Max_cycle;Signal;HPM_P1;HPM_P2
2023/06/28 00:02:10;;;;;;;4.37;2.90;;;18.10;99.90;;;;;;5054671;28;20471;-81
2023/06/28 00:04:39;;;;;;;2.80;2.60;;;18.10;99.90;;;;;;5073988;28;20561;-80
2023/06/28 00:07:08;;;;;;;3.70;3.40;;;18.10;99.90;;;;;;5072980;28;20482;-79
2023/06/28 00:09:36;;;;;;;4.80;3.13;;;18.10;99.90;;;;;;5075948;28;20459;-80
2023/06/28 00:12:03;;;;;;;4.90;3.57;;;18.10;99.90;;;;;;5062038;28;20467;-80
2023/06/28 00:14:31;;;;;;;2.90;2.70;;;18.00;99.90;;;;;;5054948;28;20475;-80
2023/06/28 00:16:59;;;;;;;4.47;3.03;;;18.00;99.90;;;;;;5063267;28;21070;-80
2023/06/28 00:19:32;;;;;;;4.53;3.77;;;18.00;99.90;;;;;;5085642;28;20476;-80
2023/06/28 00:22:05;;;;;;;4.53;2.47;;;18.00;99.90;;;;;;5084145;28;20496;-79
2023/06/28 00:24:32;;;;;;;4.30;2.77;;;18.00;99.90;;;;;;5082847;28;20481;-80
2023/06/28 00:27:02;;;;;;;4.30;3.10;;;17.90;99.90;;;;;;5081371;28;20793;-80
2023/06/28 00:29:29;;;;;;;4.93;2.80;;;17.90;99.90;;;;;;5080545;28;20462;-80
2023/06/28 00:31:56;;;;;;;6.80;2.77;;;17.90;99.90;;;;;;5073679;28;20471;-79
2023/06/28 00:34:24;;;;;;;3.97;2.80;;;17.90;99.90;;;;;;5072792;28;20470;-80
2023/06/28 00:36:51;;;;;;;3.43;2.53;;;17.90;99.90;;;;;;5057998;28;20475;-79
2023/06/28 00:39:19;;;;;;;3.00;2.70;;;17.90;99.90;;;;;;5053489;28;20467;-80
2023/06/28 00:41:46;;;;;;;5.10;3.20;;;17.90;99.90;;;;;;5053386;28;20502;-79
2023/06/28 00:44:13;;;;;;;6.30;3.47;;;17.90;99.90;;;;;;5052893;28;20467;-80
2023/06/28 00:46:40;;;;;;;6.37;3.67;;;17.80;99.90;;;;;;5053523;28;20525;-80
2023/06/28 00:49:08;;;;;;;3.53;3.10;;;17.80;99.90;;;;;;5053192;28;20463;-80
2023/06/28 00:51:36;;;;;;;4.43;3.10;;;17.80;99.90;;;;;;5053323;28;20482;-81
2023/06/28 00:54:03;;;;;;;6.93;3.27;;;17.80;99.90;;;;;;5042911;28;20566;-79
2023/06/28 00:56:32;;;;;;;3.10;2.57;;;17.80;99.90;;;;;;5061228;28;20480;-79
2023/06/28 00:58:59;;;;;;;6.23;3.20;;;17.80;99.90;;;;;;5053790;28;20471;-80
2023/06/28 01:01:28;;;;;;;4.17;2.90;;;17.70;99.90;;;;;;5052690;28;20466;-79
2023/06/28 01:04:00;;;;;;;5.43;3.40;;;17.70;99.90;;;;;;5055539;28;20551;-80
2023/06/28 01:06:35;;;;;;;5.03;3.33;;;17.70;99.90;;;;;;5056581;28;20490;-80
2023/06/28 01:09:03;;;;;;;9.23;3.83;;;17.70;99.90;;;;;;5057110;28;20542;-80
2023/06/28 01:11:32;;;;;;;4.70;3.83;;;17.70;99.90;;;;;;5056436;28;20527;-80
2023/06/28 01:14:00;;;;;;;5.70;3.47;;;17.70;99.90;;;;;;5056968;28;20471;-79
2023/06/28 01:16:27;;;;;;;7.10;2.90;;;17.70;99.90;;;;;;5062622;28;20528;-79
2023/06/28 01:18:55;;;;;;;5.73;3.23;;;17.60;99.90;;;;;;5077362;28;20466;-80
2023/06/28 01:21:25;;;;;;;4.53;3.70;;;17.60;99.90;;;;;;5076639;28;20462;-80
2023/06/28 01:23:54;;;;;;;5.20;2.97;;;17.60;99.90;;;;;;5076609;28;20474;-79
2023/06/28 01:26:21;;;;;;;6.63;3.20;;;17.60;99.90;;;;;;5076781;28;20474;-80
2023/06/28 01:28:49;;;;;;;3.07;2.63;;;17.60;99.90;;;;;;5077113;28;20531;-80
2023/06/28 01:31:16;;;;;;;4.17;3.27;;;17.60;99.90;;;;;;5075714;28;20489;-79
2023/06/28 01:33:45;;;;;;;3.60;3.30;;;17.60;99.90;;;;;;5056833;28;20532;-81
2023/06/28 01:36:12;;;;;;;4.47;3.37;;;17.60;99.90;;;;;;5056512;28;20475;-81
2023/06/28 01:38:40;;;;;;;5.07;3.87;;;17.60;99.90;;;;;;5056555;28;20533;-81
2023/06/28 01:41:11;;;;;;;7.77;3.50;;;17.60;99.90;;;;;;5056616;28;20471;-80
2023/06/28 01:43:39;;;;;;;5.30;4.27;;;17.60;99.90;;;;;;5056571;28;20466;-80
2023/06/28 01:46:07;;;;;;;4.97;3.37;;;17.60;99.90;;;;;;5056483;28;20464;-80
2023/06/28 01:48:34;;;;;;;6.43;3.33;;;17.60;99.90;;;;;;5056144;28;20832;-80
2023/06/28 01:51:04;;;;;;;7.70;2.80;;;17.60;99.90;;;;;;5056128;28;20475;-80
2023/06/28 01:53:32;;;;;;;6.90;3.53;;;17.60;99.90;;;;;;5056081;28;20470;-79
2023/06/28 01:55:59;;;;;;;4.43;3.60;;;17.60;99.90;;;;;;5056323;28;20474;-80
2023/06/28 01:58:27;;;;;;;8.67;5.27;;;17.60;99.90;;;;;;5055227;28;20864;-81
2023/06/28 02:00:55;;;;;;;6.03;3.87;;;17.50;99.90;;;;;;5056349;28;20525;-80
2023/06/28 02:03:22;;;;;;;5.80;4.90;;;17.50;99.90;;;;;;5054505;28;20581;-80
2023/06/28 02:05:58;;;;;;;5.07;2.80;;;17.50;99.90;;;;;;5052106;28;20467;-80
2023/06/28 02:08:25;;;;;;;4.40;3.40;;;17.50;99.90;;;;;;5055674;28;20528;-81
2023/06/28 02:10:52;;;;;;;8.67;3.87;;;17.50;99.90;;;;;;5056371;28;20470;-80
2023/06/28 02:13:19;;;;;;;5.37;3.30;;;17.50;99.90;;;;;;5054939;28;20467;-80
2023/06/28 02:15:47;;;;;;;8.50;3.23;;;17.40;99.90;;;;;;5054814;28;20471;-79
2023/06/28 02:18:16;;;;;;;4.30;3.70;;;17.40;99.90;;;;;;5056389;28;20498;-79
2023/06/28 02:20:43;;;;;;;4.23;3.30;;;17.40;99.90;;;;;;5055755;28;20455;-80
2023/06/28 02:23:10;;;;;;;7.00;3.07;;;17.40;99.90;;;;;;5055816;28;20479;-80
2023/06/28 02:25:37;;;;;;;6.10;4.50;;;17.40;99.90;;;;;;5056136;28;20499;-80
2023/06/28 02:28:05;;;;;;;4.83;4.17;;;17.40;99.90;;;;;;5056588;28;21070;-79
2023/06/28 02:30:32;;;;;;;6.37;3.40;;;17.40;99.90;;;;;;5055722;28;20495;-81
2023/06/28 02:33:01;;;;;;;5.97;4.33;;;17.40;99.90;;;;;;5055493;28;20541;-79
2023/06/28 02:35:28;;;;;;;4.43;3.47;;;17.40;99.90;;;;;;5054590;28;20961;-79
2023/06/28 02:37:55;;;;;;;5.43;3.73;;;17.40;99.90;;;;;;5056228;28;20467;-81
2023/06/28 02:40:23;;;;;;;5.50;3.53;;;17.40;99.90;;;;;;5054328;28;20502;-80
2023/06/28 02:42:50;;;;;;;7.27;5.17;;;17.40;99.90;;;;;;5055607;28;20478;-80
2023/06/28 02:45:32;;;;;;;6.10;3.90;;;17.40;99.90;;;;;;5057302;28;20552;-80
2023/06/28 02:48:00;;;;;;;8.67;4.43;;;17.40;99.90;;;;;;5054568;28;20800;-80
2023/06/28 02:50:27;;;;;;;3.33;3.03;;;17.40;99.90;;;;;;5055072;28;20541;-80
2023/06/28 02:52:55;;;;;;;3.57;3.00;;;17.40;99.90;;;;;;5054753;28;20467;-79
2023/06/28 02:55:24;;;;;;;4.30;3.03;;;17.50;99.90;;;;;;5055444;28;20804;-81
2023/06/28 02:57:52;;;;;;;3.43;2.83;;;17.50;99.90;;;;;;5053390;28;20851;-80
2023/06/28 03:00:20;;;;;;;4.47;3.30;;;17.50;99.90;;;;;;5055017;28;20471;-80
2023/06/28 03:02:47;;;;;;;4.23;3.67;;;17.50;99.90;;;;;;5054374;28;20469;-80
2023/06/28 03:05:15;;;;;;;9.60;4.30;;;17.50;99.90;;;;;;5054143;28;20479;-80
2023/06/28 03:07:42;;;;;;;4.03;2.40;;;17.50;99.90;;;;;;5044908;28;20467;-80
2023/06/28 03:10:10;;;;;;;6.10;3.93;;;17.50;99.90;;;;;;5070601;28;20558;-79
2023/06/28 03:12:41;;;;;;;5.30;3.03;;;17.50;99.90;;;;;;5054982;28;20529;-80
2023/06/28 03:15:09;;;;;;;5.20;2.83;;;17.40;99.90;;;;;;5054529;28;20804;-80
2023/06/28 03:17:36;;;;;;;5.60;2.80;;;17.50;99.90;;;;;;5054052;28;20876;-80
2023/06/28 03:20:04;;;;;;;7.70;3.20;;;17.50;99.90;;;;;;5054512;28;21024;-79
2023/06/28 03:22:32;;;;;;;5.93;3.60;;;17.50;99.90;;;;;;5055126;28;20490;-81
2023/06/28 03:24:59;;;;;;;4.80;3.23;;;17.50;99.90;;;;;;5054203;28;20510;-81
2023/06/28 03:27:27;;;;;;;4.03;3.10;;;17.50;99.90;;;;;;5054611;28;20646;-81
2023/06/28 03:29:54;;;;;;;4.23;3.47;;;17.50;99.90;;;;;;5053815;28;20471;-80
2023/06/28 03:32:21;;;;;;;4.00;3.50;;;17.50;99.90;;;;;;5054529;28;20463;-80
2023/06/28 03:34:48;;;;;;;8.33;3.23;;;17.60;99.90;;;;;;5054177;28;20540;-80
2023/06/28 03:37:18;;;;;;;6.70;3.73;;;17.60;99.90;;;;;;5054312;28;20467;-78
2023/06/28 03:39:46;;;;;;;6.10;3.33;;;17.60;99.90;;;;;;5053974;28;20969;-80
2023/06/28 03:42:13;;;;;;;5.10;3.53;;;17.50;99.90;;;;;;5053885;28;20516;-80
2023/06/28 03:44:40;;;;;;;4.67;3.37;;;17.50;99.90;;;;;;5054322;28;20473;-79
2023/06/28 03:47:07;;;;;;;5.17;3.60;;;17.50;99.90;;;;;;5052811;28;20553;-78
2023/06/28 03:49:34;;;;;;;5.00;3.10;;;17.60;99.90;;;;;;5053579;28;20486;-78
2023/06/28 03:52:08;;;;;;;6.50;3.60;;;17.60;99.90;;;;;;5053778;28;20472;-79
2023/06/28 03:54:35;;;;;;;6.13;3.13;;;17.50;99.90;;;;;;5054264;28;20463;-80
2023/06/28 03:57:04;;;;;;;6.57;3.63;;;17.50;99.90;;;;;;5054208;28;20505;-79
2023/06/28 03:59:31;;;;;;;6.70;2.97;;;17.50;99.90;;;;;;5054023;28;20533;-79
2023/06/28 04:01:59;;;;;;;7.93;3.20;;;17.50;99.90;;;;;;5053594;28;20467;-80
2023/06/28 04:04:26;;;;;;;6.57;3.27;;;17.60;99.90;;;;;;5053823;28;20808;-80
2023/06/28 04:06:54;;;;;;;7.27;4.47;;;17.50;99.90;;;;;;5053176;28;20957;-80
2023/06/28 04:09:21;;;;;;;4.67;4.00;;;17.50;99.90;;;;;;5053832;28;20471;-80
2023/06/28 04:11:48;;;;;;;4.50;3.20;;;17.60;99.90;;;;;;5053751;28;20483;-80
2023/06/28 04:14:16;;;;;;;3.50;3.30;;;17.60;99.90;;;;;;5053602;28;20830;-80
2023/06/28 04:16:43;;;;;;;4.83;3.13;;;17.60;99.90;;;;;;5053965;28;20483;-79
2023/06/28 04:19:10;;;;;;;6.00;4.17;;;17.60;99.90;;;;;;5053479;28;20497;-80
2023/06/28 04:21:37;;;;;;;4.60;3.10;;;17.60;99.90;;;;;;5053740;28;20479;-81
2023/06/28 04:24:05;;;;;;;5.83;2.90;;;17.60;99.90;;;;;;5052801;28;20490;-79
2023/06/28 04:26:33;;;;;;;4.97;3.13;;;17.70;99.90;;;;;;5053663;28;20481;-79
2023/06/28 04:29:00;;;;;;;4.10;3.13;;;17.60;99.90;;;;;;5053442;28;20471;-80
2023/06/28 04:31:29;;;;;;;5.13;3.20;;;17.60;99.90;;;;;;5054103;28;20528;-80
2023/06/28 04:33:57;;;;;;;3.13;2.83;;;17.60;99.90;;;;;;5052912;28;20471;-80
2023/06/28 04:36:25;;;;;;;6.43;3.23;;;17.60;99.90;;;;;;5053795;28;20475;-80
2023/06/28 04:38:54;;;;;;;6.53;3.50;;;17.60;99.90;;;;;;5053243;28;20821;-80
2023/06/28 04:41:22;;;;;;;8.13;3.17;;;17.60;99.90;;;;;;5053389;28;20529;-80
2023/06/28 04:43:54;;;;;;;5.63;2.97;;;17.60;99.90;;;;;;5053579;28;20487;-79
2023/06/28 04:46:22;;;;;;;3.63;2.90;;;17.70;99.90;;;;;;5053897;28;20459;-80
2023/06/28 04:48:51;;;;;;;8.60;3.60;;;17.70;99.90;;;;;;5054324;28;20482;-80
2023/06/28 04:51:19;;;;;;;10.60;3.80;;;17.70;99.90;;;;;;5053732;28;20785;-80
2023/06/28 04:53:47;;;;;;;5.93;4.43;;;17.70;99.90;;;;;;5054169;28;20471;-80
2023/06/28 04:56:14;;;;;;;4.30;3.17;;;17.70;99.90;;;;;;5052644;28;20475;-79
2023/06/28 04:58:42;;;;;;;6.60;4.00;;;17.80;99.90;;;;;;5054753;28;20876;-79
2023/06/28 05:01:09;;;;;;;7.03;3.17;;;17.80;99.90;;;;;;5057415;28;20509;-80
2023/06/28 05:03:38;;;;;;;8.23;3.03;;;17.80;99.90;;;;;;5057266;28;20459;-80
2023/06/28 05:06:07;;;;;;;6.90;3.20;;;17.90;99.90;;;;;;5053529;28;20533;-80
2023/06/28 05:08:35;;;;;;;6.10;3.17;;;17.90;99.90;;;;;;5055369;28;20459;-80
2023/06/28 05:11:03;;;;;;;4.37;3.20;;;17.90;99.90;;;;;;5053984;28;20483;-79
2023/06/28 05:13:30;;;;;;;5.00;3.23;;;17.90;99.90;;;;;;5051738;28;20463;-79
2023/06/28 05:15:57;;;;;;;6.87;3.00;;;18.00;99.90;;;;;;5053130;28;20863;-79
2023/06/28 05:18:24;;;;;;;6.57;3.10;;;18.00;99.90;;;;;;5052501;28;20459;-80
2023/06/28 05:20:52;;;;;;;4.20;2.60;;;18.00;99.90;;;;;;5053363;28;20542;-80
2023/06/28 05:23:21;;;;;;;9.37;2.80;;;18.10;99.90;;;;;;5053604;28;20479;-80
2023/06/28 05:25:48;;;;;;;4.33;2.53;;;18.10;99.90;;;;;;5053783;28;20471;-80
2023/06/28 05:28:16;;;;;;;5.60;3.10;;;18.20;99.90;;;;;;5054129;28;20470;-79
2023/06/28 05:30:44;;;;;;;6.43;3.60;;;18.20;99.90;;;;;;5055214;28;20482;-79
2023/06/28 05:33:11;;;;;;;6.60;3.50;;;18.30;99.90;;;;;;5054296;28;20868;-79
2023/06/28 05:35:39;;;;;;;7.60;3.43;;;18.30;99.90;;;;;;5055288;28;20545;-79
2023/06/28 05:38:07;;;;;;;3.50;3.00;;;18.40;99.90;;;;;;5053034;28;20493;-78
2023/06/28 05:40:36;;;;;;;6.53;2.70;;;18.40;99.90;;;;;;5053143;28;20481;-79
2023/06/28 05:43:03;;;;;;;6.90;3.60;;;18.50;99.90;;;;;;5053347;28;20533;-79
2023/06/28 05:45:32;;;;;;;4.00;2.73;;;18.50;99.90;;;;;;5052471;28;20758;-79
2023/06/28 05:51:47;;;;;;;3.00;2.50;;;18.60;99.90;;;;;;5045569;28;20475;-79
2023/06/28 05:54:14;;;;;;;4.47;2.90;;;18.70;99.90;;;;;;5067630;28;20524;-80
2023/06/28 05:56:42;;;;;;;6.83;3.00;;;18.80;99.90;;;;;;5055935;28;20467;-80
2023/06/28 05:59:09;;;;;;;3.17;2.90;;;18.80;99.90;;;;;;5055525;28;20612;-80
2023/06/28 06:01:36;;;;;;;4.67;3.03;;;18.90;99.90;;;;;;5056499;28;20467;-80
2023/06/28 06:04:03;;;;;;;5.83;3.40;;;19.00;99.90;;;;;;5072335;28;20459;-79
2023/06/28 06:06:30;;;;;;;4.73;2.87;;;19.10;99.90;;;;;;5064122;28;20451;-79
2023/06/28 06:08:57;;;;;;;6.73;3.17;;;19.20;99.90;;;;;;5082281;28;20493;-79
2023/06/28 06:11:24;;;;;;;4.43;2.90;;;19.30;99.90;;;;;;5083382;28;20831;-79
2023/06/28 06:13:55;;;;;;;9.37;3.00;;;19.40;99.90;;;;;;5066110;28;20471;-80
2023/06/28 06:16:22;;;;;;;5.40;2.63;;;19.40;99.90;;;;;;5064475;28;20472;-80
2023/06/28 06:18:49;;;;;;;4.97;3.33;;;19.50;99.90;;;;;;5066552;28;20475;-80
2023/06/28 06:21:17;;;;;;;5.17;2.77;;;19.50;99.90;;;;;;5078449;28;20535;-80
2023/06/28 06:23:44;;;;;;;4.10;2.53;;;19.70;99.90;;;;;;5081668;28;20999;-81
2023/06/28 06:26:11;;;;;;;4.33;3.00;;;19.70;99.90;;;;;;5083854;28;20474;-78
2023/06/28 06:28:39;;;;;;;3.53;2.80;;;19.90;99.90;;;;;;5084093;28;20457;-79
2023/06/28 06:31:13;;;;;;;10.20;2.90;;;20.00;99.90;;;;;;5085302;28;20466;-79
2023/06/28 06:33:40;;;;;;;4.20;2.57;;;20.20;99.90;;;;;;5082591;28;20920;-80
2023/06/28 06:36:07;;;;;;;5.60;2.60;;;20.30;99.90;;;;;;5097612;28;20466;-79
2023/06/28 06:38:37;;;;;;;5.27;2.67;;;20.40;99.90;;;;;;5100393;28;20469;-80
2023/06/28 06:41:04;;;;;;;3.87;3.07;;;20.60;99.90;;;;;;5098696;28;20595;-79
2023/06/28 06:43:31;;;;;;;3.43;2.70;;;20.70;99.90;;;;;;5097545;28;20493;-79
2023/06/28 06:45:58;;;;;;;6.00;2.70;;;20.80;99.90;;;;;;5098937;28;20531;-79
2023/06/28 06:48:26;;;;;;;6.77;3.00;;;20.90;99.90;;;;;;5098032;28;20466;-80
2023/06/28 06:50:53;;;;;;;7.67;6.00;;;20.90;99.90;;;;;;5098809;28;20548;-79
2023/06/28 06:53:20;;;;;;;6.13;4.33;;;21.10;99.90;;;;;;5100161;28;20469;-80
2023/06/28 06:55:48;;;;;;;8.80;6.70;;;21.20;99.90;;;;;;5099664;28;20473;-78
2023/06/28 06:58:15;;;;;;;8.10;4.30;;;21.20;99.90;;;;;;5096378;28;20530;-80
2023/06/28 07:00:42;;;;;;;3.93;2.40;;;21.30;99.90;;;;;;5085086;28;20531;-79
2023/06/28 07:03:09;;;;;;;6.20;2.87;;;21.40;99.90;;;;;;5095856;28;20488;-80
2023/06/28 07:05:37;;;;;;;5.60;2.40;;;21.40;99.90;;;;;;5096340;28;20544;-81
2023/06/28 07:08:05;;;;;;;6.30;3.63;;;21.40;99.90;;;;;;5096194;28;20465;-79
2023/06/28 07:10:32;;;;;;;7.13;5.53;;;21.50;99.90;;;;;;5095628;28;20500;-80
2023/06/28 07:13:24;;;;;;;10.37;6.40;;;21.60;99.90;;;;;;5075360;28;20827;-80
2023/06/28 07:15:51;;;;;;;7.20;4.50;;;21.80;99.90;;;;;;5083353;28;20860;-81
2023/06/28 07:18:18;;;;;;;3.60;3.13;;;22.00;99.90;;;;;;5084379;28;20465;-80
2023/06/28 07:20:47;;;;;;;6.23;5.10;;;22.10;99.90;;;;;;5084842;28;20481;-80
2023/06/28 07:23:14;;;;;;;5.73;5.00;;;22.20;99.90;;;;;;5093405;28;20466;-80
2023/06/28 07:25:41;;;;;;;6.83;5.10;;;22.10;99.90;;;;;;5093243;28;20767;-80
2023/06/28 07:28:08;;;;;;;5.63;4.77;;;22.20;99.90;;;;;;5094166;28;20469;-79
2023/06/28 07:30:54;;;;;;;4.10;3.20;;;22.10;99.90;;;;;;5094139;28;20519;-80
2023/06/28 07:33:22;;;;;;;5.30;2.60;;;22.20;99.90;;;;;;5093816;28;20481;-81
2023/06/28 07:35:51;;;;;;;5.37;3.00;;;22.40;99.90;;;;;;5094629;28;20977;-79
2023/06/28 07:38:19;;;;;;;2.37;1.93;;;22.60;99.90;;;;;;5094085;28;20473;-80
2023/06/28 07:40:46;;;;;;;2.93;2.13;;;22.70;99.90;;;;;;5094518;28;20493;-81
2023/06/28 07:43:13;;;;;;;2.77;2.57;;;22.70;99.90;;;;;;5094218;28;20522;-78
2023/06/28 07:45:41;;;;;;;2.73;2.30;;;22.70;99.90;;;;;;5093762;28;20465;-79
2023/06/28 07:48:08;;;;;;;3.10;2.10;;;22.70;99.90;;;;;;5094057;28;20465;-79
2023/06/28 07:50:38;;;;;;;4.43;2.30;;;22.60;99.90;;;;;;5093646;28;20466;-79
2023/06/28 07:53:07;;;;;;;4.00;2.30;;;22.70;99.90;;;;;;5093868;28;20501;-80
2023/06/28 07:55:34;;;;;;;3.20;2.47;;;22.50;99.90;;;;;;5093506;28;20492;-80
2023/06/28 07:58:01;;;;;;;2.90;2.10;;;22.50;99.90;;;;;;5096084;28;20594;-80
2023/06/28 08:00:30;;;;;;;4.27;2.10;;;22.50;99.90;;;;;;5096097;28;20519;-80
2023/06/28 08:02:57;;;;;;;2.90;2.30;;;22.50;99.90;;;;;;5095324;28;20531;-80
2023/06/28 08:05:24;;;;;;;3.60;2.70;;;22.50;99.90;;;;;;5094780;28;20465;-80
2023/06/28 08:07:53;;;;;;;2.80;2.47;;;22.50;99.90;;;;;;5094875;28;20522;-80
2023/06/28 08:10:23;;;;;;;8.70;5.73;;;22.50;99.90;;;;;;5093809;28;20787;-79
2023/06/28 08:12:50;;;;;;;4.87;4.33;;;22.50;99.90;;;;;;5093158;28;20462;-80
2023/06/28 08:15:18;;;;;;;5.37;4.27;;;22.50;99.90;;;;;;5093841;28;20881;-80
2023/06/28 08:17:45;;;;;;;7.70;3.67;;;22.50;99.90;;;;;;5073042;28;20489;-79
2023/06/28 08:20:12;;;;;;;2.47;2.27;;;22.50;99.90;;;;;;5089052;28;20465;-79
2023/06/28 08:22:39;;;;;;;2.87;2.37;;;22.60;99.90;;;;;;5092913;28;20462;-78
2023/06/28 08:25:14;;;;;;;4.63;2.33;;;22.60;99.90;;;;;;5093448;28;20475;-80
2023/06/28 08:27:43;;;;;;;4.13;2.30;;;22.70;99.90;;;;;;5092974;28;20464;-79
2023/06/28 08:30:10;;;;;;;5.10;2.00;;;22.80;99.90;;;;;;5093206;28;20470;-78
2023/06/28 08:32:41;;;;;;;4.10;2.47;;;22.90;99.90;;;;;;5093948;28;20920;-79
2023/06/28 08:35:12;;;;;;;6.20;3.90;;;23.00;99.90;;;;;;5093912;28;20473;-79
2023/06/28 08:37:39;;;;;;;5.37;3.33;;;23.20;99.90;;;;;;5084650;28;20485;-79
2023/06/28 08:40:07;;;;;;;2.80;2.20;;;23.40;99.80;;;;;;5094085;28;20803;-77
2023/06/28 08:42:35;;;;;;;3.03;2.53;;;23.40;99.30;;;;;;5094663;28;20501;-80
2023/06/28 08:45:04;;;;;;;2.93;2.63;;;23.40;98.90;;;;;;5094595;28;20457;-81
2023/06/28 08:47:41;;;;;;;3.20;2.10;;;23.50;99.10;;;;;;5081907;28;20473;-79
2023/06/28 08:50:10;;;;;;;4.03;3.63;;;23.40;99.00;;;;;;5093920;28;20938;-80
2023/06/28 08:52:38;;;;;;;4.03;3.00;;;23.40;98.80;;;;;;5093152;28;20775;-80
2023/06/28 08:55:06;;;;;;;3.80;2.40;;;23.40;99.00;;;;;;5090100;28;20524;-81
2023/06/28 08:57:35;;;;;;;3.37;2.50;;;23.40;98.30;;;;;;5093870;28;20462;-80
2023/06/28 09:00:10;;;;;;;3.50;2.60;;;23.30;98.50;;;;;;5094233;28;20483;-80
2023/06/28 09:02:39;;;;;;;2.93;2.20;;;23.30;99.00;;;;;;5093202;28;20472;-80
2023/06/28 09:05:08;;;;;;;4.23;2.50;;;23.40;98.70;;;;;;5093598;28;20547;-79
2023/06/28 09:07:38;;;;;;;5.20;2.50;;;23.40;98.80;;;;;;5095831;28;20457;-79
2023/06/28 09:10:08;;;;;;;6.53;2.07;;;23.40;99.10;;;;;;5094948;28;20461;-80
2023/06/28 09:12:36;;;;;;;3.80;2.10;;;23.30;98.70;;;;;;5091759;28;20560;-80
2023/06/28 09:15:05;;;;;;;4.63;1.90;;;23.40;98.60;;;;;;5093761;28;20461;-80
2023/06/28 09:17:32;;;;;;;3.83;1.97;;;23.40;98.30;;;;;;5093936;28;21070;-80
2023/06/28 09:20:03;;;;;;;4.53;2.90;;;23.40;98.40;;;;;;5074106;28;20519;-79
2023/06/28 09:22:31;;;;;;;4.67;2.60;;;23.30;98.70;;;;;;5091129;28;20955;-80
2023/06/28 09:25:10;;;;;;;5.00;1.70;;;23.30;98.40;;;;;;5085677;28;21010;-80
2023/06/28 09:27:36;;;;;;;3.73;1.30;;;23.30;97.80;;;;;;5098863;28;20966;-79
2023/06/28 09:30:07;;;;;;;3.47;2.57;;;23.30;97.90;;;;;;5088046;28;20530;-79
2023/06/28 09:32:40;;;;;;;4.90;1.70;;;23.20;98.00;;;;;;5098200;28;20807;-79
2023/06/28 09:35:12;;;;;;;8.30;2.23;;;23.20;98.20;;;;;;5077509;28;20946;-80
2023/06/28 09:37:40;;;;;;;2.67;2.47;;;23.20;97.30;;;;;;5093587;28;20473;-80
2023/06/28 09:40:09;;;;;;;5.73;3.20;;;23.30;96.80;;;;;;5097236;28;20457;-80
2023/06/28 09:42:45;;;;;;;3.77;2.37;;;23.30;96.70;;;;;;5097339;28;20466;-80
2023/06/28 09:45:24;;;;;;;2.30;2.03;;;23.40;96.80;;;;;;5097829;28;20869;-79
2023/06/28 09:47:56;;;;;;;2.93;2.60;;;23.40;96.80;;;;;;5097389;28;20643;-80
2023/06/28 09:50:35;;;;;;;5.13;2.37;;;23.50;96.50;;;;;;5097072;28;20495;-79
2023/06/28 09:53:01;;;;;;;5.77;2.17;;;23.50;96.40;;;;;;5095913;28;20461;-79
2023/06/28 09:55:28;;;;;;;2.90;1.60;;;23.60;96.20;;;;;;5096713;28;20465;-80
2023/06/28 09:57:59;;;;;;;2.60;1.70;;;23.60;96.00;;;;;;5095711;28;20971;-79
2023/06/28 10:00:34;;;;;;;2.43;2.00;;;23.70;96.20;;;;;;5096390;28;20547;-80
2023/06/28 10:03:10;;;;;;;3.23;1.73;;;23.70;95.50;;;;;;5097193;28;20465;-80
2023/06/28 10:05:42;;;;;;;2.30;1.70;;;23.70;95.60;;;;;;5099606;28;20468;-81
2023/06/28 10:08:13;;;;;;;3.13;2.23;;;23.60;95.80;;;;;;5098374;28;20536;-82
2023/06/28 10:10:42;;;;;;;3.43;2.03;;;23.70;95.70;;;;;;5099910;28;20496;-80
2023/06/28 10:13:15;;;;;;;6.23;2.10;;;23.70;96.20;;;;;;5097187;28;20470;-81
2023/06/28 10:15:48;;;;;;;3.07;1.80;;;23.70;95.80;;;;;;5098237;28;20526;-80
2023/06/28 10:18:16;;;;;;;3.63;2.00;;;23.60;95.90;;;;;;5098852;28;20473;-81
2023/06/28 10:20:43;;;;;;;2.63;2.43;;;23.60;95.80;;;;;;5099368;28;20470;-80
2023/06/28 10:23:12;;;;;;;2.97;2.00;;;23.60;95.50;;;;;;5096103;28;20474;-79
2023/06/28 10:25:41;;;;;;;2.00;1.60;;;23.70;95.20;;;;;;5095983;28;20952;-80
2023/06/28 10:28:11;;;;;;;4.83;2.90;;;23.70;95.30;;;;;;5095871;28;21017;-79
2023/06/28 10:30:40;;;;;;;5.00;2.10;;;23.70;95.50;;;;;;5098672;28;20493;-78
2023/06/28 10:33:09;;;;;;;1.90;1.70;;;23.80;95.40;;;;;;5097328;28;20483;-79
2023/06/28 10:35:41;;;;;;;4.70;1.80;;;23.80;95.40;;;;;;5097270;28;20458;-79
2023/06/28 10:38:11;;;;;;;2.20;1.50;;;23.80;95.40;;;;;;5095301;28;20816;-79
2023/06/28 10:40:39;;;;;;;4.03;2.23;;;23.90;94.80;;;;;;5095873;28;20526;-80
2023/06/28 10:43:10;;;;;;;4.47;1.97;;;23.90;94.90;;;;;;5095425;28;20465;-81
2023/06/28 10:45:40;;;;;;;4.40;2.40;;;23.90;94.30;;;;;;5084525;28;20500;-80
2023/06/28 10:48:12;;;;;;;2.80;2.10;;;23.80;94.60;;;;;;5076163;28;20865;-80
2023/06/28 10:50:42;;;;;;;3.20;1.70;;;23.90;94.80;;;;;;5096459;28;20453;-79
2023/06/28 10:53:20;;;;;;;3.77;3.47;;;23.90;94.70;;;;;;5096306;28;20749;-80
2023/06/28 10:56:14;;;;;;;4.07;3.17;;;24.00;94.60;;;;;;5097079;28;20462;-79
2023/06/28 10:58:42;;;;;;;3.83;2.60;;;23.90;94.80;;;;;;5076102;28;20446;-79
2023/06/28 11:01:13;;;;;;;4.77;3.60;;;24.00;95.00;;;;;;5096389;28;20454;-79
2023/06/28 11:03:45;;;;;;;6.13;2.43;;;24.00;95.10;;;;;;5097101;28;20457;-80
2023/06/28 11:06:13;;;;;;;4.40;2.23;;;24.10;94.70;;;;;;5098009;28;20465;-78
2023/06/28 11:08:44;;;;;;;2.30;2.10;;;24.20;95.00;;;;;;5107411;28;20468;-79
2023/06/28 11:11:23;;;;;;;7.10;3.10;;;24.20;94.60;;;;;;5097525;28;20465;-79
2023/06/28 11:13:50;;;;;;;2.53;2.20;;;24.20;94.50;;;;;;5076300;28;20454;-80
2023/06/28 11:16:20;;;;;;;4.63;2.00;;;24.20;94.80;;;;;;5078099;28;20532;-80
2023/06/28 11:18:50;;;;;;;4.53;2.20;;;24.30;94.70;;;;;;5079142;28;20488;-79
2023/06/28 11:21:18;;;;;;;3.70;2.17;;;24.30;94.70;;;;;;5079940;28;20474;-78
2023/06/28 11:23:47;;;;;;;4.13;2.10;;;24.20;94.40;;;;;;5078623;28;20470;-78
2023/06/28 11:26:18;;;;;;;5.93;2.00;;;24.20;93.90;;;;;;5082542;28;20824;-79
2023/06/28 11:28:51;;;;;;;3.10;1.80;;;24.20;93.20;;;;;;5079060;28;20812;-80
2023/06/28 11:31:20;;;;;;;2.73;2.00;;;24.20;93.40;;;;;;5079590;28;20797;-80
2023/06/28 11:33:50;;;;;;;2.17;1.60;;;24.20;93.80;;;;;;5077534;28;20870;-81
2023/06/28 11:36:18;;;;;;;2.33;2.10;;;24.20;94.00;;;;;;5079254;28;20471;-79
2023/06/28 11:38:46;;;;;;;3.00;2.73;;;24.20;94.40;;;;;;5078970;28;20475;-78
2023/06/28 11:41:15;;;;;;;3.10;2.33;;;24.30;94.10;;;;;;5079424;28;20470;-79
2023/06/28 11:43:44;;;;;;;3.70;2.30;;;24.30;94.10;;;;;;5076634;28;20462;-80
2023/06/28 11:46:17;;;;;;;2.70;1.47;;;24.30;93.70;;;;;;5075288;28;20474;-79
2023/06/28 11:48:46;;;;;;;3.00;2.20;;;24.30;93.60;;;;;;5074764;28;20474;-80
2023/06/28 11:51:14;;;;;;;4.37;2.23;;;24.30;93.60;;;;;;5074628;28;20469;-80
2023/06/28 11:53:42;;;;;;;2.80;1.90;;;24.30;93.80;;;;;;5074154;28;20466;-80
2023/06/28 11:56:09;;;;;;;3.50;1.97;;;24.20;93.90;;;;;;5073960;28;20494;-80
2023/06/28 11:58:37;;;;;;;7.10;3.07;;;24.30;94.10;;;;;;5073639;28;20470;-78
2023/06/28 12:01:05;;;;;;;3.40;2.03;;;24.30;94.20;;;;;;5073982;28;20458;-78
2023/06/28 12:03:33;;;;;;;4.00;2.20;;;24.30;93.70;;;;;;5073535;28;20466;-79
2023/06/28 12:06:01;;;;;;;3.47;2.50;;;24.30;93.70;;;;;;5073914;28;20548;-79
2023/06/28 12:08:34;;;;;;;3.00;2.30;;;24.40;93.80;;;;;;5074514;28;20788;-79
2023/06/28 12:11:02;;;;;;;3.00;2.13;;;24.40;93.90;;;;;;5075203;28;20450;-78
2023/06/28 12:13:29;;;;;;;4.10;2.03;;;24.40;93.90;;;;;;5075060;28;20454;-79
2023/06/28 12:15:59;;;;;;;3.10;2.07;;;24.50;93.90;;;;;;5073635;28;20469;-80
2023/06/28 12:18:55;;;;;;;3.03;1.83;;;24.50;94.00;;;;;;5074503;28;20466;-80
2023/06/28 12:21:22;;;;;;;3.20;1.73;;;24.60;93.40;;;;;;5074333;28;20462;-79
2023/06/28 12:23:51;;;;;;;3.00;2.07;;;24.50;93.50;;;;;;5086973;28;21048;-79
2023/06/28 12:26:19;;;;;;;3.40;2.00;;;24.50;93.20;;;;;;5093862;28;20480;-78
2023/06/28 12:28:50;;;;;;;3.77;2.03;;;24.50;93.20;;;;;;5094134;28;20966;-80
2023/06/28 12:31:18;;;;;;;5.10;2.40;;;24.50;93.00;;;;;;5094678;28;20537;-80
2023/06/28 12:33:52;;;;;;;7.20;2.67;;;24.50;93.00;;;;;;5073456;28;20908;-79
2023/06/28 12:36:20;;;;;;;4.40;3.30;;;24.40;93.00;;;;;;5089689;28;20630;-79
2023/06/28 12:38:49;;;;;;;3.00;2.60;;;24.40;93.10;;;;;;5092920;28;20457;-80
2023/06/28 12:41:18;;;;;;;1.90;1.70;;;24.40;93.40;;;;;;5094038;28;20531;-79
2023/06/28 12:43:55;;;;;;;3.30;2.20;;;24.40;93.40;;;;;;5092866;28;20469;-79
2023/06/28 12:46:22;;;;;;;1.93;1.80;;;24.50;92.90;;;;;;5093520;28;20477;-79
2023/06/28 12:48:50;;;;;;;2.23;1.87;;;24.50;92.70;;;;;;5093319;28;20461;-79
2023/06/28 12:51:17;;;;;;;2.90;2.23;;;24.50;92.70;;;;;;5093415;28;20963;-79
2023/06/28 12:53:44;;;;;;;4.27;2.50;;;24.50;92.70;;;;;;5092967;28;20989;-80
2023/06/28 12:56:11;;;;;;;5.13;2.13;;;24.50;92.90;;;;;;5093333;28;20476;-79
2023/06/28 12:58:40;;;;;;;4.13;2.40;;;24.50;92.70;;;;;;5093527;28;20465;-78